Aurora, IL

8:46 AM CST on February 01, 2015 (GMT -0600)
Stonehaven | Change Station
CLOSE
Current Station
Personal Weather Station
Location: Aurora, IL
Elevation: 699 ft
Nearby Weather Stations

Elev 699 ft 41.74 °N, 88.21 °W | Updated 2 minutes ago

Snow
Snow
31.6 °F
Feels Like 28 °F
N
3.7
Wind Variable Wind from East

Today
High -- | Low -- °F
--% Chance of Precip.
Yesterday
High -- | Low -- °F
Precip. -- in
7:05 AM 5:08 PM
Waxing Gibbous, 95% visible
Pressure 29.94 in
Visibility 0.2 miles
Clouds
Windchill 28 °F
Dew Point 31 °F
Humidity 98%
Rainfall 0.00 in
Snow Depth Not available.
UV Not available.
Pollen .10 out of 12
Air Quality Not available.
Flu Activity Not available.
METAR KDPA 011352Z 06015KT 1/4SM +SN FZFG VV006 M01/M02 A2991 RMK AO2 TWR VIS 1/2 SLP136 P0000 T10061017 RVRNO

More Conditions Fewer Conditions

Pressure 29.94 in
Visibility 0.2 miles
Clouds
Windchill 28 °F
Dew Point 31 °F
Humidity 98%
Rainfall 0.00 in
Snow Depth Not available.
UV Not available.
Pollen .10 out of 12
Air Quality Not available.
Flu Activity Not available.
METAR KDPA 011352Z 06015KT 1/4SM +SN FZFG VV006 M01/M02 A2991 RMK AO2 TWR VIS 1/2 SLP136 P0000 T10061017 RVRNO

More Conditions Fewer Conditions

10-Day Weather Forecast

Almanac

Astronomy

Feb. 01, 2015 Rise Set
Actual Time
Civil Twilight
Nautical Twilight
Astronomical Twilight
Moon
Length of Visible Light
Length of Day
Tomorrow will be .
, % of the Moon is Illuminated

Today's Extremes

State Highs State Lows

Community

WunderPhotos

Upload Photos

1,792,362 photos uploaded!

WunderBlogs® & News

Nearby

Air Quality

  Air Quality AQ Index Pollutant
Not available.

Snow Depth

Station Depth Elevation

Earthquake Activity

City Distance Mag. Time & Date
Minimum magnitude displayed is 2.5.

Coastal Water Temperatures

Place Temperature

Nearby Weather Stations